Time;durP1;ratioP1;P1;durP2;ratioP2;P2;SDS_P1;SDS_P2;PMS_P1;PMS_P2;Temp;Humidity;BMP_temperature;BMP_pressure;BME280_temperature;BME280_humidity;BME280_pressure;Samples;Min_cycle;Max_cycle;Signal;HPM_P1;HPM_P2
2022/10/24 00:01:10;;;;;;;5.38;1.30;;;;;;;18.47;60.18;97933.81;7381457;19;20026;-75
2022/10/24 00:03:38;;;;;;;3.15;0.98;;;;;;;18.36;60.74;97937.19;7383366;19;20019;-75
2022/10/24 00:06:06;;;;;;;6.32;1.13;;;;;;;18.41;60.58;97935.50;7382840;19;20351;-75
2022/10/24 00:08:35;;;;;;;9.60;1.58;;;;;;;18.33;60.07;97933.06;7385489;19;20007;-76
2022/10/24 00:11:07;;;;;;;6.47;1.30;;;;;;;18.38;59.74;97927.06;7386382;19;20022;-76
2022/10/24 00:13:34;;;;;;;7.65;1.83;;;;;;;18.38;59.83;97930.56;7382116;19;20038;-75
2022/10/24 00:16:01;;;;;;;3.33;1.20;;;;;;;18.35;59.66;97931.00;7383766;19;20406;-76
2022/10/24 00:18:28;;;;;;;9.40;2.13;;;;;;;18.26;60.10;97932.28;7385137;19;20048;-75
2022/10/24 00:20:54;;;;;;;8.07;1.67;;;;;;;18.33;60.18;97932.25;7383703;19;20018;-75
2022/10/24 00:23:21;;;;;;;6.25;1.30;;;;;;;18.37;60.33;97934.25;7383451;19;20018;-75
2022/10/24 00:25:48;;;;;;;11.25;2.45;;;;;;;18.35;60.94;97941.72;7387843;19;20018;-75
2022/10/24 00:28:15;;;;;;;6.25;1.67;;;;;;;18.26;61.11;97937.66;7385964;19;20392;-75
2022/10/24 00:30:41;;;;;;;5.55;1.17;;;;;;;18.19;61.05;97937.69;7382488;19;20014;-75
2022/10/24 00:33:08;;;;;;;8.85;1.75;;;;;;;18.15;61.16;97936.47;7385225;19;20396;-75
2022/10/24 00:35:34;;;;;;;10.05;1.55;;;;;;;18.12;60.94;97941.44;7384994;19;20031;-75
2022/10/24 00:38:01;;;;;;;6.60;0.93;;;;;;;18.05;61.71;97943.34;7380099;19;20581;-75
2022/10/24 00:40:28;;;;;;;10.68;2.67;;;;;;;18.05;61.13;97949.50;7387038;19;20014;-75
2022/10/24 00:42:55;;;;;;;10.43;1.67;;;;;;;18.02;60.52;97947.25;7386888;19;20041;-75
2022/10/24 00:45:43;;;;;;;5.32;1.60;;;;;;;18.05;61.36;97956.72;7383758;19;20477;-75
2022/10/24 00:48:41;;;;;;;6.57;1.33;;;;;;;18.02;61.89;97960.63;7377223;19;20014;-75
2022/10/24 00:51:17;;;;;;;9.60;1.70;;;;;;;18.01;61.48;97948.31;7384896;19;20010;-75
2022/10/24 00:53:46;;;;;;;7.57;1.23;;;;;;;17.99;61.06;97956.53;7389593;19;20044;-75
2022/10/24 00:56:15;;;;;;;12.20;1.50;;;;;;;18.05;62.10;97954.03;7386380;19;20029;-75
2022/10/24 00:58:43;;;;;;;9.10;1.30;;;;;;;17.97;61.71;97950.56;7391129;19;20442;-75
2022/10/24 01:01:11;;;;;;;5.18;1.60;;;;;;;17.93;63.02;97962.75;7391833;19;20014;-75
2022/10/24 01:03:38;;;;;;;2.90;1.08;;;;;;;17.89;62.41;97964.19;7389907;19;20029;-75
2022/10/24 01:06:20;;;;;;;7.90;2.00;;;;;;;17.85;63.21;97963.00;7390328;19;20006;-75
2022/10/24 01:08:57;;;;;;;6.10;1.43;;;;;;;17.84;63.27;97960.53;7392011;19;19998;-75
2022/10/24 01:11:36;;;;;;;7.55;1.65;;;;;;;17.74;65.47;97955.56;7388598;19;20255;-75
2022/10/24 01:14:22;;;;;;;8.52;1.77;;;;;;;17.61;65.12;97950.28;7387386;19;20366;-75
2022/10/24 01:17:15;;;;;;;5.68;1.63;;;;;;;17.57;63.69;97951.75;7391919;19;20040;-75
2022/10/24 01:20:21;;;;;;;5.53;1.42;;;;;;;17.49;63.99;97958.97;7389210;19;20052;-75
2022/10/24 01:23:02;;;;;;;5.97;1.30;;;;;;;17.43;64.42;97967.84;7387451;19;20026;-75
2022/10/24 01:26:01;;;;;;;5.10;1.90;;;;;;;17.50;63.14;97963.25;7387022;19;20002;-75
2022/10/24 01:28:59;;;;;;;13.70;1.80;;;;;;;17.68;62.59;97962.59;7388141;19;20018;-75
2022/10/24 01:31:39;;;;;;;16.40;1.83;;;;;;;17.82;62.40;97957.22;7391000;19;20018;-75
2022/10/24 01:34:10;;;;;;;10.93;1.80;;;;;;;17.83;62.69;97954.34;7393889;19;20014;-75
2022/10/24 01:36:50;;;;;;;6.68;1.58;;;;;;;17.94;62.89;97945.66;7389448;19;20014;-75
2022/10/24 01:39:19;;;;;;;10.15;1.63;;;;;;;17.84;62.73;97955.97;7387507;19;20018;-75
2022/10/24 01:41:46;;;;;;;12.40;2.08;;;;;;;17.85;63.09;97954.97;7388911;19;20022;-75
2022/10/24 01:44:26;;;;;;;8.43;1.63;;;;;;;17.72;63.23;97958.47;7387665;19;20532;-75
2022/10/24 01:47:07;;;;;;;12.40;2.30;;;;;;;17.63;63.35;97958.91;7386864;19;20611;-75
2022/10/24 01:49:36;;;;;;;5.93;1.38;;;;;;;17.66;63.46;97953.16;7388492;19;20031;-75
2022/10/24 01:52:07;;;;;;;8.32;1.80;;;;;;;17.62;63.70;97951.94;7390165;19;20022;-75
2022/10/24 01:54:36;;;;;;;7.65;2.30;;;;;;;17.58;64.21;97950.69;7389130;19;20054;-75
2022/10/24 01:57:04;;;;;;;8.30;1.50;;;;;;;17.61;64.20;97950.28;7385651;19;20015;-75
2022/10/24 01:59:30;;;;;;;8.25;2.20;;;;;;;17.64;64.47;97955.19;7389535;19;20014;-75
2022/10/24 02:02:10;;;;;;;7.88;1.92;;;;;;;17.62;64.72;97954.63;7384412;19;20504;-76
2022/10/24 02:04:40;;;;;;;7.75;1.80;;;;;;;17.60;64.51;97952.13;7387246;19;20018;-76
2022/10/24 02:07:09;;;;;;;12.30;1.90;;;;;;;17.57;64.27;97952.56;7385695;19;20014;-77
2022/10/24 02:09:37;;;;;;;4.32;1.30;;;;;;;17.64;64.28;97950.69;7392294;19;20042;-76
2022/10/24 02:12:08;;;;;;;6.10;1.40;;;;;;;17.70;63.68;97944.50;7385893;19;20052;-76
2022/10/24 02:14:41;;;;;;;5.45;1.60;;;;;;;17.74;64.14;97945.69;7389300;19;20022;-76
2022/10/24 02:17:09;;;;;;;3.58;1.40;;;;;;;17.80;65.35;97957.47;7385133;19;20018;-75
2022/10/24 02:19:37;;;;;;;14.05;2.65;;;;;;;17.64;64.64;97963.22;7388672;19;20051;-76
2022/10/24 02:22:14;;;;;;;7.07;1.70;;;;;;;17.58;64.62;97956.06;7388835;19;20052;-76
2022/10/24 02:24:46;;;;;;;11.38;2.17;;;;;;;17.47;64.96;97950.31;7384960;19;20030;-76
2022/10/24 02:27:17;;;;;;;7.90;1.77;;;;;;;17.50;65.05;97951.75;7384607;19;20015;-76
2022/10/24 02:29:49;;;;;;;7.88;2.10;;;;;;;17.57;64.81;97933.84;7384646;19;20018;-76
2022/10/24 02:32:22;;;;;;;6.63;2.08;;;;;;;17.57;64.95;97938.38;7388746;19;20044;-76
2022/10/24 02:34:48;;;;;;;;;;;;;;;17.58;64.95;97938.16;7386364;19;20034;-76
2022/10/24 02:37:16;;;;;;;7.35;1.63;;;;;;;17.56;64.99;97934.84;7383917;19;20357;-76
2022/10/24 02:39:45;;;;;;;8.73;2.00;;;;;;;17.54;65.03;97923.56;7386194;19;20018;-76
2022/10/24 02:42:13;;;;;;;10.10;2.30;;;;;;;17.63;65.07;97924.16;7383464;19;20018;-76
2022/10/24 02:44:41;;;;;;;7.60;1.52;;;;;;;17.56;64.86;97910.78;7386158;19;20014;-75
2022/10/24 02:47:10;;;;;;;9.68;1.90;;;;;;;17.64;64.72;97907.06;7386795;19;20505;-75
2022/10/24 02:49:37;;;;;;;7.30;1.73;;;;;;;17.75;64.56;97907.22;7385418;19;20032;-76
2022/10/24 02:52:05;;;;;;;11.20;2.63;;;;;;;17.79;64.60;97894.25;7384149;19;20537;-76
2022/10/24 02:54:31;;;;;;;7.43;1.98;;;;;;;17.76;64.72;97900.00;7387168;19;20047;-76
2022/10/24 02:57:02;;;;;;;7.38;2.22;;;;;;;17.83;64.55;97892.81;7386487;19;20667;-76
2022/10/24 02:59:29;;;;;;;9.43;2.30;;;;;;;17.72;65.04;97886.25;7386739;19;20410;-76
2022/10/24 03:01:56;;;;;;;14.07;2.10;;;;;;;17.72;64.82;97883.56;7387625;19;20062;-77
2022/10/24 03:04:23;;;;;;;7.07;1.90;;;;;;;17.76;64.78;97886.63;7385801;19;20128;-76
2022/10/24 03:06:50;;;;;;;10.00;2.35;;;;;;;17.78;64.50;97897.94;7385039;19;20101;-77
2022/10/24 03:09:16;;;;;;;11.52;2.50;;;;;;;17.71;65.09;97900.63;7383907;19;20466;-77
2022/10/24 03:11:43;;;;;;;16.70;2.95;;;;;;;17.73;65.23;97905.78;7384104;19;20026;-76
2022/10/24 03:14:10;;;;;;;8.63;2.22;;;;;;;17.70;65.64;97907.03;7381113;19;20019;-76
2022/10/24 03:16:37;;;;;;;13.70;2.63;;;;;;;17.70;65.80;97911.56;7387138;19;20031;-77
2022/10/24 03:19:04;;;;;;;12.27;3.08;;;;;;;17.73;65.98;97916.50;7384531;19;20026;-76
2022/10/24 03:21:30;;;;;;;9.52;2.42;;;;;;;17.69;65.75;97929.47;7385977;19;20017;-77
2022/10/24 03:23:57;;;;;;;14.93;2.55;;;;;;;17.70;66.32;97924.94;7387718;19;20014;-76
2022/10/24 03:26:24;;;;;;;12.63;2.92;;;;;;;17.73;66.11;97924.53;7385135;19;20034;-76
2022/10/24 03:28:50;;;;;;;8.25;2.30;;;;;;;17.64;66.47;97920.44;7385651;19;22416;-76
2022/10/24 03:31:17;;;;;;;9.18;2.42;;;;;;;17.70;66.19;97922.28;7389576;19;20018;-75
2022/10/24 03:33:44;;;;;;;10.82;2.53;;;;;;;17.70;66.49;97919.59;7384279;19;20018;-76
2022/10/24 03:36:11;;;;;;;11.10;2.00;;;;;;;17.72;66.68;97925.53;7384168;19;20783;-76
2022/10/24 03:38:37;;;;;;;11.52;3.42;;;;;;;17.60;66.67;97943.28;7389380;19;20018;-76
2022/10/24 03:41:04;;;;;;;9.32;2.83;;;;;;;17.61;66.69;97947.59;7386450;19;20030;-76
2022/10/24 03:43:31;;;;;;;9.60;2.75;;;;;;;17.59;67.31;97936.28;7383234;19;20363;-76
2022/10/24 03:45:58;;;;;;;7.15;2.42;;;;;;;17.50;67.83;97931.19;7388128;19;20010;-76
2022/10/24 03:48:25;;;;;;;13.52;2.88;;;;;;;17.48;67.78;97922.56;7386674;19;20018;-76
2022/10/24 03:50:52;;;;;;;13.57;2.80;;;;;;;17.48;67.70;97919.88;7385081;19;20022;-78
2022/10/24 03:53:18;;;;;;;18.33;3.47;;;;;;;17.48;67.66;97908.34;7384052;19;20019;-76
2022/10/24 03:55:45;;;;;;;15.68;3.10;;;;;;;17.39;68.22;97920.31;7384288;19;20046;-76
2022/10/24 03:58:12;;;;;;;16.20;2.70;;;;;;;17.43;68.08;97913.50;7381018;19;20019;-75
2022/10/24 04:00:40;;;;;;;8.30;2.10;;;;;;;17.46;67.67;97919.28;7384543;19;20022;-75
2022/10/24 04:03:08;;;;;;;12.23;2.35;;;;;;;17.50;67.90;97922.34;7382525;19;20018;-76
2022/10/24 04:05:35;;;;;;;12.02;2.70;;;;;;;17.43;67.92;97919.69;7385845;19;20038;-76
2022/10/24 04:08:02;;;;;;;9.52;2.30;;;;;;;17.43;68.17;97922.38;7383099;19;20759;-76
2022/10/24 04:10:29;;;;;;;12.07;2.58;;;;;;;17.41;67.82;97929.78;7384395;19;20014;-76
2022/10/24 04:12:56;;;;;;;14.32;2.63;;;;;;;17.42;67.75;97925.25;7385316;19;20074;-76
2022/10/24 04:15:23;;;;;;;14.00;2.53;;;;;;;17.48;67.67;97935.09;7380623;19;20002;-76
2022/10/24 04:17:49;;;;;;;14.90;2.63;;;;;;;17.48;67.62;97933.25;7382633;19;20035;-76
2022/10/24 04:20:21;;;;;;;9.93;2.50;;;;;;;17.51;66.88;97940.84;7384955;19;20015;-77
2022/10/24 04:22:48;;;;;;;13.93;3.40;;;;;;;17.53;67.17;97936.09;7382875;19;20015;-77
2022/10/24 04:25:15;;;;;;;8.77;2.67;;;;;;;17.59;67.03;97933.59;7382909;19;20038;-76
2022/10/24 04:27:42;;;;;;;9.40;2.40;;;;;;;17.63;66.94;97930.31;7378607;19;20092;-76
2022/10/24 04:30:13;;;;;;;16.80;2.85;;;;;;;17.62;66.68;97931.34;7377852;19;20056;-76
2022/10/24 04:32:42;;;;;;;9.27;2.72;;;;;;;17.65;66.59;97930.94;7378924;19;20020;-75
2022/10/24 04:35:10;;;;;;;14.23;2.40;;;;;;;17.69;66.39;97929.47;7385825;19;20357;-76
2022/10/24 04:37:36;;;;;;;14.30;2.28;;;;;;;17.71;66.64;97929.25;7382285;19;20019;-76
2022/10/24 04:40:03;;;;;;;10.90;3.17;;;;;;;17.64;66.53;97917.75;7382244;19;20014;-77
2022/10/24 04:42:30;;;;;;;6.72;2.42;;;;;;;17.80;66.35;97920.00;7373748;19;20022;-77
2022/10/24 04:44:57;;;;;;;5.35;2.28;;;;;;;17.75;66.07;97911.75;7377105;19;20010;-76
2022/10/24 04:47:23;;;;;;;14.25;2.50;;;;;;;17.80;65.68;97911.97;7381004;19;20019;-76
2022/10/24 04:49:50;;;;;;;8.15;2.13;;;;;;;17.84;66.08;97915.84;7382117;19;20040;-76
2022/10/24 04:52:17;;;;;;;9.80;2.47;;;;;;;17.83;66.24;97926.78;7381424;19;20011;-76
2022/10/24 04:54:43;;;;;;;10.77;3.17;;;;;;;17.78;66.27;97914.81;7383137;19;20733;-77
2022/10/24 04:57:10;;;;;;;11.85;2.33;;;;;;;17.74;66.02;97913.59;7378954;19;20019;-76
2022/10/24 04:59:37;;;;;;;14.65;2.95;;;;;;;17.75;65.97;97917.09;7374231;19;20019;-76
2022/10/24 05:02:03;;;;;;;7.65;2.40;;;;;;;17.75;65.97;97920.59;7382757;19;20035;-76
2022/10/24 05:04:30;;;;;;;15.20;2.47;;;;;;;17.76;66.18;97916.06;7385573;19;20380;-76
2022/10/24 05:06:57;;;;;;;8.18;2.00;;;;;;;17.78;65.85;97919.34;7381444;19;20018;-75
2022/10/24 05:09:24;;;;;;;12.60;2.75;;;;;;;17.78;65.93;97925.53;7385020;19;20958;-76
2022/10/24 05:11:53;;;;;;;14.23;2.75;;;;;;;17.79;65.72;97931.72;7384896;19;20515;-76
2022/10/24 05:14:23;;;;;;;10.68;2.63;;;;;;;17.80;65.79;97928.03;7380747;19;20018;-76
2022/10/24 05:16:50;;;;;;;13.85;2.50;;;;;;;17.81;65.80;97932.34;7378734;19;20017;-75
2022/10/24 05:19:18;;;;;;;9.45;2.50;;;;;;;17.77;65.58;97931.06;7374754;19;20014;-75
2022/10/24 05:21:45;;;;;;;7.32;2.42;;;;;;;17.80;65.91;97922.66;7369784;19;20015;-75
2022/10/24 05:24:12;;;;;;;15.50;2.70;;;;;;;17.82;65.44;97917.91;7377206;19;20052;-75
2022/10/24 05:26:38;;;;;;;12.10;2.85;;;;;;;17.80;65.44;97920.00;7382280;19;20010;-76
2022/10/24 05:29:05;;;;;;;9.38;2.40;;;;;;;17.84;65.46;97928.41;7384383;19;20402;-76
2022/10/24 05:31:33;;;;;;;15.80;2.47;;;;;;;17.88;65.69;97933.13;7384102;19;20470;-76
2022/10/24 05:34:00;;;;;;;14.68;3.03;;;;;;;17.80;65.95;97929.84;7382502;19;20404;-75
2022/10/24 05:36:26;;;;;;;14.50;2.88;;;;;;;17.80;66.14;97943.22;7382712;19;20018;-76
2022/10/24 05:38:53;;;;;;;12.15;2.45;;;;;;;17.75;66.62;97944.69;7390267;19;20014;-76
2022/10/24 05:41:20;;;;;;;13.85;2.75;;;;;;;17.68;67.21;97957.25;7391464;19;20525;-76
2022/10/24 05:43:46;;;;;;;11.20;2.47;;;;;;;17.63;67.70;97967.75;7387086;19;20030;-76
2022/10/24 05:46:13;;;;;;;7.90;2.30;;;;;;;17.63;68.26;97973.09;7393626;19;20014;-76
2022/10/24 05:48:40;;;;;;;10.48;2.75;;;;;;;17.61;68.97;97972.50;7389077;19;20019;-76
2022/10/24 05:51:06;;;;;;;7.90;2.53;;;;;;;17.63;69.62;97973.09;7389643;19;20017;-76
2022/10/24 05:53:33;;;;;;;9.43;3.05;;;;;;;17.56;69.56;97977.66;7388288;19;20762;-76
2022/10/24 05:56:00;;;;;;;10.20;2.13;;;;;;;17.48;70.53;97977.88;7389372;19;20014;-76
2022/10/24 05:58:26;;;;;;;17.35;2.55;;;;;;;17.43;70.93;97978.53;7387991;19;20023;-76
2022/10/24 06:00:53;;;;;;;13.32;2.40;;;;;;;17.39;70.71;97979.16;7389181;19;20030;-76
2022/10/24 06:03:20;;;;;;;11.85;2.97;;;;;;;17.42;70.68;97976.06;7390853;19;20030;-76
2022/10/24 06:05:48;;;;;;;5.40;2.60;;;;;;;17.34;70.61;97969.88;7389668;19;20235;-76
2022/10/24 06:08:15;;;;;;;13.68;3.17;;;;;;;17.28;70.80;97975.25;7386502;19;20355;-75
2022/10/24 06:10:45;;;;;;;11.80;2.55;;;;;;;17.23;71.16;97980.41;7389829;19;20901;-76
2022/10/24 06:13:12;;;;;;;13.07;2.50;;;;;;;17.20;71.36;97995.00;7391033;19;20014;-75
2022/10/24 06:15:43;;;;;;;13.55;2.90;;;;;;;17.12;71.87;98011.25;7391152;19;20018;-75
2022/10/24 06:18:10;;;;;;;22.20;4.65;;;;;;;16.52;77.07;98026.38;7386935;19;20027;-74
2022/10/24 06:20:36;;;;;;;30.13;5.82;;;;;;;16.53;77.66;98012.81;7389497;19;20485;-75
2022/10/24 06:23:03;;;;;;;27.50;3.67;;;;;;;16.32;78.04;98016.47;7389184;19;20018;-76
2022/10/24 06:25:30;;;;;;;11.82;3.63;;;;;;;16.28;78.27;98030.44;7393750;19;20708;-77
2022/10/24 06:27:56;;;;;;;15.50;3.90;;;;;;;16.27;78.46;98044.78;7392159;19;20057;-77
2022/10/24 06:30:23;;;;;;;11.80;3.03;;;;;;;16.22;79.17;98048.06;7394439;19;20023;-77
2022/10/24 06:32:50;;;;;;;10.18;3.00;;;;;;;16.11;79.62;98040.63;7395420;19;20015;-77
2022/10/24 06:35:18;;;;;;;12.48;3.15;;;;;;;16.12;79.95;98035.09;7393194;19;20015;-77
2022/10/24 06:37:45;;;;;;;14.35;3.40;;;;;;;16.09;79.83;98029.31;7390101;19;20110;-77
2022/10/24 06:40:15;;;;;;;12.25;3.33;;;;;;;16.11;80.00;98028.09;7395280;19;20060;-77
2022/10/24 06:42:41;;;;;;;12.05;2.58;;;;;;;16.18;79.83;98026.28;7394950;19;20501;-77
2022/10/24 06:45:08;;;;;;;12.30;2.75;;;;;;;16.17;79.83;98035.31;7396601;19;20366;-77
2022/10/24 06:47:35;;;;;;;13.05;3.20;;;;;;;16.21;79.65;98039.22;7394362;19;20015;-77
2022/10/24 06:50:02;;;;;;;5.53;2.60;;;;;;;16.07;79.74;98031.38;7395365;19;20524;-77
2022/10/24 06:52:29;;;;;;;9.95;3.22;;;;;;;16.07;80.18;98032.19;7394438;19;20046;-77
2022/10/24 06:54:55;;;;;;;13.38;2.85;;;;;;;16.20;80.17;98036.78;7391196;19;20079;-77
2022/10/24 06:57:22;;;;;;;10.27;3.30;;;;;;;16.27;79.81;98053.59;7390523;19;20019;-76
2022/10/24 06:59:49;;;;;;;7.82;2.78;;;;;;;16.26;80.08;98057.31;7392444;19;20026;-77
2022/10/24 07:02:16;;;;;;;11.68;3.15;;;;;;;16.21;80.33;98049.09;7391070;19;20038;-77
2022/10/24 07:04:43;;;;;;;7.97;3.33;;;;;;;16.27;80.35;98052.78;7390445;19;20524;-77
2022/10/24 07:07:17;;;;;;;14.32;4.00;;;;;;;16.26;80.48;98056.50;7388254;19;20478;-76
2022/10/24 07:09:44;;;;;;;9.00;3.22;;;;;;;16.25;80.50;98055.69;7389025;19;20014;-76
2022/10/24 07:12:11;;;;;;;16.40;3.75;;;;;;;16.20;80.28;98069.63;7387162;19;20396;-76
2022/10/24 07:14:38;;;;;;;10.90;3.20;;;;;;;16.14;80.44;98089.09;7389552;19;20018;-76
2022/10/24 07:17:04;;;;;;;11.35;3.28;;;;;;;16.09;80.72;98098.69;7390518;19;20035;-77
2022/10/24 07:19:31;;;;;;;16.27;4.15;;;;;;;15.98;81.05;98065.41;7389435;19;20035;-77
2022/10/24 07:22:03;;;;;;;13.70;3.47;;;;;;;16.03;81.13;98073.63;7389964;19;20026;-77
2022/10/24 07:24:30;;;;;;;9.90;3.88;;;;;;;16.06;81.34;98073.25;7391825;19;20022;-77
2022/10/24 07:26:56;;;;;;;15.10;3.80;;;;;;;16.11;81.27;98078.81;7391510;19;20023;-77
2022/10/24 07:29:23;;;;;;;9.98;3.10;;;;;;;16.06;81.41;98086.59;7392514;19;20363;-77
2022/10/24 07:31:50;;;;;;;10.05;3.65;;;;;;;16.05;81.34;98089.47;7392240;19;20022;-77
2022/10/24 07:34:17;;;;;;;15.70;3.80;;;;;;;16.08;81.49;98081.06;7391437;19;20010;-77
2022/10/24 07:36:44;;;;;;;14.48;4.03;;;;;;;16.12;81.47;98067.13;7390939;19;20018;-77
2022/10/24 07:39:11;;;;;;;12.75;3.70;;;;;;;16.16;81.86;98068.34;7389435;19;20026;-77
2022/10/24 07:41:40;;;;;;;19.95;8.73;;;;;;;16.26;82.01;98065.31;7392036;19;20007;-77
2022/10/24 07:44:07;;;;;;;27.08;12.07;;;;;;;16.25;82.19;98063.69;7385026;19;20018;-77
2022/10/24 07:46:34;;;;;;;24.65;12.95;;;;;;;16.26;81.91;98062.66;7388294;19;20014;-77
2022/10/24 07:49:01;;;;;;;19.15;7.00;;;;;;;16.28;81.75;98055.28;7387591;19;20057;-76
2022/10/24 07:51:28;;;;;;;16.55;7.13;;;;;;;16.38;81.44;98046.91;7386319;19;20026;-76
2022/10/24 07:53:56;;;;;;;11.82;4.50;;;;;;;16.38;81.47;98061.06;7385797;19;20019;-76
2022/10/24 07:56:23;;;;;;;9.85;3.92;;;;;;;16.43;81.32;98063.97;7388651;19;20054;-76
2022/10/24 07:58:50;;;;;;;12.02;4.20;;;;;;;16.27;81.57;98050.13;7386299;19;20011;-76
2022/10/24 08:01:22;;;;;;;18.05;5.03;;;;;;;16.10;82.39;98049.66;7386143;19;20762;-76
2022/10/24 08:03:49;;;;;;;20.20;6.65;;;;;;;16.21;82.35;98059.75;7385594;19;20010;-76
2022/10/24 08:06:19;;;;;;;15.68;7.70;;;;;;;16.17;82.33;98069.22;7385470;19;20375;-76
2022/10/24 08:08:46;;;;;;;15.70;5.85;;;;;;;16.08;82.59;98070.38;7387356;19;20015;-75
2022/10/24 08:11:15;;;;;;;17.52;6.30;;;;;;;16.06;82.62;98075.94;7385613;19;20878;-76
2022/10/24 08:13:42;;;;;;;16.05;7.32;;;;;;;16.02;82.83;98080.00;7386201;19;20019;-76
2022/10/24 08:16:11;;;;;;;15.90;4.57;;;;;;;16.04;82.72;98074.47;7387830;19;20034;-76
2022/10/24 08:18:38;;;;;;;9.27;3.65;;;;;;;15.90;82.90;98082.38;7385082;19;20031;-76
2022/10/24 08:21:11;;;;;;;10.75;2.88;;;;;;;15.88;82.87;98079.13;7384252;19;20015;-76
2022/10/24 08:23:40;;;;;;;8.82;2.42;;;;;;;15.78;82.71;98065.31;7386964;19;20042;-75
2022/10/24 08:26:09;;;;;;;6.72;2.70;;;;;;;15.65;82.97;98052.69;7385495;19;20041;-76
2022/10/24 08:28:35;;;;;;;5.45;2.20;;;;;;;15.58;82.54;98041.97;7383985;19;20392;-76
2022/10/24 08:31:06;;;;;;;8.35;2.78;;;;;;;15.52;82.25;98020.59;7382376;19;20494;-76
2022/10/24 08:33:34;;;;;;;13.07;2.92;;;;;;;15.70;82.27;98002.28;7385100;19;20027;-75
2022/10/24 08:36:04;;;;;;;7.18;2.83;;;;;;;15.68;82.47;98014.94;7383727;19;20159;-75
2022/10/24 08:38:31;;;;;;;7.72;2.72;;;;;;;15.76;82.27;98025.50;7387000;19;20494;-76
2022/10/24 08:40:59;;;;;;;8.95;3.03;;;;;;;15.77;81.62;98037.81;7382155;19;20061;-75
2022/10/24 08:43:25;;;;;;;12.02;3.05;;;;;;;15.99;81.49;98048.38;7384700;19;20014;-76
2022/10/24 08:46:01;;;;;;;9.75;2.83;;;;;;;16.09;81.50;98048.84;7386200;19;20022;-76
2022/10/24 08:48:56;;;;;;;7.28;2.97;;;;;;;16.28;81.30;98044.59;7385161;19;20022;-75
2022/10/24 08:51:27;;;;;;;7.90;2.83;;;;;;;16.36;81.50;98059.63;7382534;19;20018;-76
2022/10/24 08:53:56;;;;;;;7.72;3.55;;;;;;;16.39;81.40;98053.88;7383950;19;20445;-76
2022/10/24 08:56:27;;;;;;;16.77;4.78;;;;;;;16.39;81.14;98059.22;7382600;19;20022;-75
2022/10/24 08:58:54;;;;;;;7.75;3.40;;;;;;;16.25;81.09;98069.03;7380391;19;20019;-76
2022/10/24 09:01:36;;;;;;;9.75;3.13;;;;;;;16.14;81.20;98054.41;7384819;19;20412;-76
2022/10/24 09:04:06;;;;;;;8.68;2.45;;;;;;;16.15;81.15;98056.03;7381916;19;20025;-76
2022/10/24 09:06:33;;;;;;;8.45;2.70;;;;;;;16.12;81.22;98045.78;7383426;19;20022;-76
2022/10/24 09:09:02;;;;;;;10.52;2.80;;;;;;;16.04;81.43;98045.94;7383563;19;20492;-76
2022/10/24 09:11:29;;;;;;;6.65;2.95;;;;;;;16.08;81.50;98049.84;7383010;19;20040;-75
2022/10/24 09:13:59;;;;;;;9.90;2.70;;;;;;;16.16;81.30;98055.00;7390174;19;20022;-75
2022/10/24 09:16:26;;;;;;;8.18;2.63;;;;;;;16.24;81.11;98056.69;7389021;19;20038;-76
2022/10/24 09:18:54;;;;;;;10.35;2.30;;;;;;;16.32;81.05;98053.84;7392367;19;20624;-76
2022/10/24 09:21:21;;;;;;;7.88;2.50;;;;;;;16.21;80.32;98062.44;7391896;19;20031;-75
2022/10/24 09:23:49;;;;;;;8.60;2.65;;;;;;;16.37;79.89;98086.09;7388146;19;20048;-75
2022/10/24 09:26:28;;;;;;;7.45;2.65;;;;;;;16.53;79.93;98098.28;7388254;19;20015;-76
2022/10/24 09:28:55;;;;;;;13.90;2.80;;;;;;;16.63;79.77;98104.06;7388947;19;20018;-75
2022/10/24 09:31:24;;;;;;;9.07;3.92;;;;;;;16.60;80.17;98107.13;7393286;19;20018;-76
2022/10/24 09:33:51;;;;;;;8.80;2.45;;;;;;;16.64;80.18;98110.22;7390479;19;20021;-76
2022/10/24 09:36:20;;;;;;;9.00;4.78;;;;;;;16.57;80.51;98112.06;7388995;19;20014;-76
2022/10/24 09:38:47;;;;;;;7.97;4.30;;;;;;;16.55;80.73;98112.25;7389738;19;20026;-76
2022/10/24 09:41:16;;;;;;;10.90;3.67;;;;;;;16.52;80.52;98112.66;7390813;19;20018;-76
2022/10/24 09:43:43;;;;;;;15.90;5.93;;;;;;;16.42;80.88;98114.88;7389446;19;20376;-76
2022/10/24 09:46:13;;;;;;;19.25;7.05;;;;;;;16.44;80.71;98110.97;7391074;19;20058;-76
2022/10/24 09:48:59;;;;;;;22.13;11.88;;;;;;;16.42;80.75;98097.00;7392894;19;20011;-76
2022/10/24 09:51:32;;;;;;;7.07;4.25;;;;;;;16.48;80.96;98100.72;7392382;19;20014;-76
2022/10/24 09:54:04;;;;;;;;;;;;;;;16.49;80.71;98094.38;7393958;19;20684;-76
2022/10/24 09:56:39;;;;;;;5.72;2.85;;;;;;;16.32;80.86;98090.41;7390521;19;20338;-76
2022/10/24 09:59:22;;;;;;;8.52;4.20;;;;;;;16.40;80.94;98084.88;7388294;19;20015;-75
2022/10/24 10:01:48;;;;;;;9.50;3.73;;;;;;;16.46;80.50;98084.91;7392849;19;20018;-76
2022/10/24 10:04:17;;;;;;;12.43;6.25;;;;;;;16.53;80.52;98086.78;7390242;19;20016;-76
2022/10/24 10:06:48;;;;;;;14.30;5.03;;;;;;;16.49;80.10;98082.88;7387154;19;20039;-75
2022/10/24 10:09:23;;;;;;;7.80;2.05;;;;;;;16.42;80.14;98091.66;7392582;19;20023;-76
2022/10/24 10:11:57;;;;;;;8.80;2.83;;;;;;;16.44;80.57;98094.97;7389295;19;20493;-75
2022/10/24 10:14:31;;;;;;;15.10;3.50;;;;;;;16.47;80.16;98099.09;7389868;19;20536;-75
2022/10/24 10:17:00;;;;;;;9.02;3.35;;;;;;;16.57;80.13;98090.69;7385882;19;20358;-76
2022/10/24 10:19:27;;;;;;;13.20;2.90;;;;;;;16.56;80.19;98099.72;7389416;19;20006;-75
2022/10/24 10:22:00;;;;;;;7.18;2.75;;;;;;;16.59;80.17;98086.81;7389886;19;20014;-75
2022/10/24 10:24:42;;;;;;;10.85;3.08;;;;;;;16.57;79.92;98094.19;7389378;19;20342;-76
2022/10/24 10:27:31;;;;;;;7.78;3.15;;;;;;;16.70;80.09;98092.59;7387340;19;20022;-76
2022/10/24 10:30:24;;;;;;;5.65;2.50;;;;;;;16.74;79.99;98089.28;7391288;19;20014;-75
2022/10/24 10:33:13;;;;;;;10.40;2.60;;;;;;;16.67;80.13;98073.25;7385710;19;20035;-76
2022/10/24 10:35:45;;;;;;;7.13;2.30;;;;;;;16.62;79.02;98081.06;7389570;19;20014;-76
2022/10/24 10:38:48;;;;;;;15.27;2.85;;;;;;;16.68;78.60;98082.09;7387447;19;20018;-75
2022/10/24 10:41:31;;;;;;;8.02;2.53;;;;;;;16.74;78.91;98077.78;7383876;19;20022;-75
2022/10/24 10:44:28;;;;;;;10.75;3.20;;;;;;;16.75;79.01;98069.59;7388959;19;20040;-76
2022/10/24 10:47:05;;;;;;;9.13;3.08;;;;;;;16.72;79.07;98079.84;7390461;19;20022;-75
2022/10/24 10:49:38;;;;;;;11.90;2.42;;;;;;;16.82;78.51;98074.94;7387474;19;20015;-75
2022/10/24 10:52:11;;;;;;;7.13;2.60;;;;;;;16.83;78.70;98079.28;7390212;19;20026;-75
2022/10/24 10:54:46;;;;;;;14.48;2.00;;;;;;;16.83;78.23;98076.63;7387853;19;20484;-76
2022/10/24 10:57:21;;;;;;;7.20;2.47;;;;;;;16.78;78.25;98095.91;7387161;19;20022;-76
2022/10/24 11:00:02;;;;;;;9.25;2.63;;;;;;;16.86;76.70;98094.91;7388667;19;20021;-76
2022/10/24 11:02:58;;;;;;;5.63;2.60;;;;;;;16.93;77.68;98103.78;7391765;19;20014;-76
2022/10/24 11:05:50;;;;;;;13.30;2.40;;;;;;;16.95;76.56;98115.06;7385896;19;20378;-76
2022/10/24 11:08:30;;;;;;;7.07;2.05;;;;;;;16.98;76.67;98097.78;7386687;19;20358;-75
2022/10/24 11:11:02;;;;;;;7.38;2.10;;;;;;;16.95;76.60;98106.22;7387873;19;20027;-75
2022/10/24 11:13:33;;;;;;;5.25;2.10;;;;;;;16.86;76.22;98105.59;7386061;19;20026;-76
2022/10/24 11:16:04;;;;;;;4.18;1.70;;;;;;;16.82;77.05;98112.34;7388499;19;20018;-75
2022/10/24 11:18:34;;;;;;;4.18;1.92;;;;;;;16.91;76.71;98103.16;7389044;19;20018;-75
2022/10/24 11:21:12;;;;;;;6.25;1.80;;;;;;;16.87;75.43;98116.06;7385472;19;20042;-75
2022/10/24 11:23:56;;;;;;;5.95;1.38;;;;;;;16.83;74.87;98114.84;7381904;19;20022;-75
2022/10/24 11:26:52;;;;;;;4.15;1.20;;;;;;;16.87;74.40;98120.59;7383497;19;20608;-75
2022/10/24 11:29:38;;;;;;;8.23;2.00;;;;;;;16.92;75.15;98123.47;7381943;19;20022;-75
2022/10/24 11:32:18;;;;;;;6.80;1.70;;;;;;;16.88;74.96;98122.25;7386579;19;20481;-75
2022/10/24 11:34:51;;;;;;;7.32;1.80;;;;;;;16.87;75.54;98120.59;7383775;19;20039;-75
2022/10/24 11:37:26;;;;;;;3.58;1.10;;;;;;;16.85;73.83;98114.63;7385447;19;20034;-75
2022/10/24 11:39:56;;;;;;;4.00;1.20;;;;;;;16.91;75.18;98108.50;7382958;19;20022;-75
2022/10/24 11:42:46;;;;;;;5.50;1.35;;;;;;;16.93;75.37;98097.56;7383737;19;20011;-75
2022/10/24 11:45:19;;;;;;;7.00;1.77;;;;;;;16.84;74.19;98102.28;7385795;19;20010;-78